Time;durP1;ratioP1;P1;durP2;ratioP2;P2;SDS_P1;SDS_P2;PMS_P1;PMS_P2;Temp;Humidity;BMP_temperature;BMP_pressure;BME280_temperature;BME280_humidity;BME280_pressure;Samples;Min_cycle;Max_cycle;Signal;HPM_P1;HPM_P2
2023/09/23 00:00:24;;;;;;;0.65;0.65;;;12.80;99.90;;;;;;5015835;28;20037;-64
2023/09/23 00:02:49;;;;;;;0.60;0.60;;;12.90;99.90;;;;;;5014147;28;20049;-66
2023/09/23 00:05:16;;;;;;;0.60;0.60;;;12.90;99.90;;;;;;5015456;28;20068;-64
2023/09/23 00:07:44;;;;;;;0.70;0.70;;;12.80;99.90;;;;;;5015677;28;20521;-64
2023/09/23 00:10:11;;;;;;;3.33;1.02;;;12.80;99.90;;;;;;5014337;28;20089;-64
2023/09/23 00:12:38;;;;;;;0.75;0.70;;;13.70;99.90;;;;;;4997677;28;20096;-64
2023/09/23 00:15:07;;;;;;;0.77;0.70;;;13.00;99.90;;;;;;5015469;28;20489;-64
2023/09/23 00:17:36;;;;;;;0.88;0.80;;;12.80;99.90;;;;;;5031962;28;20049;-64
2023/09/23 00:20:05;;;;;;;0.85;0.75;;;12.90;99.90;;;;;;5035178;28;20041;-64
2023/09/23 00:22:30;;;;;;;0.70;0.70;;;12.90;99.90;;;;;;5035156;28;20045;-64
2023/09/23 00:24:58;;;;;;;0.60;0.60;;;12.80;99.90;;;;;;5035030;28;20045;-64
2023/09/23 00:27:26;;;;;;;1.00;0.88;;;12.80;99.90;;;;;;5035096;28;20049;-64
2023/09/23 00:29:51;;;;;;;1.60;0.70;;;13.00;99.90;;;;;;5035031;28;20378;-64
2023/09/23 00:32:18;;;;;;;0.70;0.70;;;12.80;99.90;;;;;;5034924;28;20095;-65
2023/09/23 00:34:44;;;;;;;0.63;0.60;;;12.80;99.90;;;;;;5034584;28;20052;-65
2023/09/23 00:37:10;;;;;;;1.10;0.80;;;12.90;99.90;;;;;;5034589;28;20041;-65
2023/09/23 00:39:42;;;;;;;0.90;0.85;;;12.90;99.90;;;;;;5034840;28;20476;-65
2023/09/23 00:42:12;;;;;;;0.80;0.80;;;13.90;99.90;;;;;;5016730;28;20116;-65
2023/09/23 00:44:41;;;;;;;0.60;0.60;;;12.80;99.90;;;;;;5034701;28;20045;-65
2023/09/23 00:47:09;;;;;;;1.05;0.82;;;12.90;99.90;;;;;;5034670;28;20045;-65
2023/09/23 00:49:37;;;;;;;1.23;1.13;;;13.10;99.90;;;;;;5034681;28;20046;-65
2023/09/23 00:52:05;;;;;;;0.70;0.70;;;12.70;99.90;;;;;;5034275;28;20052;-65
2023/09/23 00:54:34;;;;;;;0.85;0.85;;;12.70;99.90;;;;;;5034111;28;20069;-65
2023/09/23 00:57:00;;;;;;;0.63;0.63;;;12.70;99.90;;;;;;5034470;28;20402;-65
2023/09/23 00:59:28;;;;;;;0.60;0.60;;;12.90;99.90;;;;;;5034170;28;20467;-65
2023/09/23 01:01:56;;;;;;;0.68;0.50;;;12.70;99.90;;;;;;5034392;28;20110;-65
2023/09/23 01:04:22;;;;;;;0.52;0.52;;;12.70;99.90;;;;;;5034422;28;20098;-65
2023/09/23 01:06:48;;;;;;;1.38;0.47;;;12.50;99.90;;;;;;5034270;28;20088;-65
2023/09/23 01:09:21;;;;;;;0.45;0.45;;;12.60;99.90;;;;;;5034280;28;20512;-65
2023/09/23 01:11:47;;;;;;;0.40;0.40;;;12.70;99.90;;;;;;5034265;28;20045;-65
2023/09/23 01:14:13;;;;;;;0.50;0.50;;;12.50;99.90;;;;;;5034111;28;20042;-65
2023/09/23 01:16:38;;;;;;;0.40;0.40;;;13.40;99.90;;;;;;5033817;28;20057;-65
2023/09/23 01:19:05;;;;;;;0.50;0.50;;;12.60;99.90;;;;;;5034068;28;20065;-65
2023/09/23 01:21:31;;;;;;;0.50;0.50;;;12.60;99.90;;;;;;5034025;28;20041;-64
2023/09/23 01:23:57;;;;;;;0.60;0.60;;;12.90;99.90;;;;;;5033672;28;20045;-65
2023/09/23 01:26:23;;;;;;;0.50;0.50;;;12.50;99.90;;;;;;5015939;28;20053;-65
2023/09/23 01:28:49;;;;;;;0.60;0.60;;;12.70;99.90;;;;;;5033940;28;20045;-64
2023/09/23 01:31:15;;;;;;;0.73;0.50;;;12.70;99.90;;;;;;5033867;28;20044;-64
2023/09/23 01:33:41;;;;;;;0.50;0.50;;;12.40;99.90;;;;;;5033765;28;20043;-65
2023/09/23 01:36:07;;;;;;;0.60;0.60;;;12.90;99.90;;;;;;5033403;28;20038;-64
2023/09/23 01:38:33;;;;;;;0.50;0.50;;;12.40;99.90;;;;;;5033674;28;20034;-66
2023/09/23 01:41:02;;;;;;;0.60;0.60;;;12.30;99.90;;;;;;5015965;28;20443;-64
2023/09/23 01:43:27;;;;;;;0.70;0.70;;;13.60;99.90;;;;;;5033363;28;20041;-64
2023/09/23 01:45:57;;;;;;;0.70;0.55;;;12.30;99.90;;;;;;5032116;28;20038;-64
2023/09/23 01:48:23;;;;;;;0.60;0.60;;;12.30;99.90;;;;;;5033334;28;20067;-64
2023/09/23 01:50:49;;;;;;;0.50;0.50;;;12.40;99.90;;;;;;5033545;28;20124;-64
2023/09/23 01:53:19;;;;;;;0.50;0.50;;;12.30;99.90;;;;;;5032059;28;20530;-64
2023/09/23 01:55:45;;;;;;;0.60;0.60;;;12.20;99.90;;;;;;5033531;28;20140;-72
2023/09/23 01:58:10;;;;;;;0.60;0.60;;;12.40;99.90;;;;;;5033375;28;20029;-72
2023/09/23 02:00:38;;;;;;;0.55;0.55;;;13.00;99.90;;;;;;5033103;28;20052;-72
2023/09/23 02:03:03;;;;;;;0.73;0.52;;;12.20;99.90;;;;;;5033269;28;20046;-71
2023/09/23 02:05:29;;;;;;;0.70;0.70;;;12.30;99.90;;;;;;5015353;28;20508;-71
2023/09/23 02:07:55;;;;;;;0.68;0.68;;;12.30;99.90;;;;;;5033259;28;20370;-72
2023/09/23 02:10:23;;;;;;;0.80;0.80;;;12.30;99.90;;;;;;5014940;28;20045;-71
2023/09/23 02:12:49;;;;;;;0.70;0.70;;;12.20;99.90;;;;;;5015544;28;20057;-72
2023/09/23 02:15:15;;;;;;;0.60;0.60;;;12.70;99.90;;;;;;5033171;28;20041;-64
2023/09/23 02:17:48;;;;;;;0.77;0.55;;;12.30;99.90;;;;;;5032732;28;20493;-64
2023/09/23 02:20:19;;;;;;;0.73;0.73;;;13.10;99.90;;;;;;5032875;28;20091;-64
2023/09/23 02:22:52;;;;;;;0.70;0.70;;;12.30;99.90;;;;;;5033126;28;20041;-64
2023/09/23 02:25:18;;;;;;;0.60;0.60;;;12.30;99.90;;;;;;5033038;28;20041;-64
2023/09/23 02:27:46;;;;;;;0.77;0.77;;;12.40;99.90;;;;;;5033081;28;20458;-64
2023/09/23 02:30:13;;;;;;;0.80;0.70;;;12.30;99.90;;;;;;5015297;28;20049;-63
2023/09/23 02:32:40;;;;;;;1.17;0.82;;;12.40;99.90;;;;;;5032979;28;20052;-64
2023/09/23 02:35:11;;;;;;;1.15;1.02;;;12.40;99.90;;;;;;5014925;28;20069;-64
2023/09/23 02:37:44;;;;;;;;;;;12.40;99.90;;;;;;5033404;28;20041;-64
2023/09/23 02:40:14;;;;;;;0.80;0.80;;;12.10;99.90;;;;;;5032931;28;19921;-64
2023/09/23 02:42:47;;;;;;;0.68;0.68;;;12.30;99.90;;;;;;5032661;28;20041;-64
2023/09/23 02:45:15;;;;;;;0.80;0.80;;;12.30;99.90;;;;;;5032872;28;20123;-64
2023/09/23 02:47:43;;;;;;;0.65;0.65;;;12.30;99.90;;;;;;5032512;28;20126;-64
2023/09/23 02:50:10;;;;;;;0.70;0.70;;;12.30;99.90;;;;;;5032840;28;20048;-64
2023/09/23 02:52:40;;;;;;;0.60;0.60;;;12.20;99.90;;;;;;5032556;28;20048;-64
2023/09/23 02:55:14;;;;;;;0.80;0.80;;;12.30;99.90;;;;;;5032741;28;20045;-64
2023/09/23 02:57:46;;;;;;;0.75;0.75;;;12.10;99.90;;;;;;5015118;28;20038;-64
2023/09/23 03:00:33;;;;;;;0.70;0.70;;;12.10;99.90;;;;;;5032527;28;20045;-64
2023/09/23 03:03:02;;;;;;;0.70;0.70;;;12.20;99.90;;;;;;5032752;28;20037;-64
2023/09/23 03:05:31;;;;;;;0.90;0.90;;;12.20;99.90;;;;;;5032539;28;20037;-71
2023/09/23 03:07:58;;;;;;;0.90;0.90;;;12.10;99.90;;;;;;5032373;28;20051;-71
2023/09/23 03:10:39;;;;;;;0.77;0.77;;;12.00;99.90;;;;;;5032439;28;20046;-72
2023/09/23 03:13:05;;;;;;;;;;;11.90;99.90;;;;;;5032805;28;20049;-72
2023/09/23 03:15:52;;;;;;;1.20;1.10;;;11.90;99.90;;;;;;5032153;28;19975;-71
2023/09/23 03:18:27;;;;;;;1.00;1.00;;;11.80;99.90;;;;;;5032670;28;20041;-71
2023/09/23 03:20:57;;;;;;;0.70;0.70;;;11.90;99.90;;;;;;5032782;28;20551;-71
2023/09/23 03:23:23;;;;;;;0.88;0.88;;;11.90;99.90;;;;;;5036323;28;20033;-72
2023/09/23 03:25:51;;;;;;;0.90;0.90;;;11.70;99.90;;;;;;5036324;28;20041;-62
2023/09/23 03:28:17;;;;;;;0.88;0.88;;;11.70;99.90;;;;;;5035870;28;20085;-62
2023/09/23 03:30:47;;;;;;;1.02;1.00;;;11.60;99.90;;;;;;5018471;28;20049;-62
2023/09/23 03:33:13;;;;;;;1.13;1.00;;;11.50;99.90;;;;;;5018154;28;20077;-62
2023/09/23 03:35:39;;;;;;;1.08;1.08;;;11.60;99.90;;;;;;5035945;28;20432;-62
2023/09/23 03:38:05;;;;;;;1.88;0.80;;;11.70;99.90;;;;;;5035694;28;20041;-62
2023/09/23 03:40:31;;;;;;;1.33;1.23;;;12.10;99.90;;;;;;5035997;28;20087;-62
2023/09/23 03:43:01;;;;;;;1.10;1.10;;;11.70;99.90;;;;;;5035909;28;20491;-62
2023/09/23 03:45:27;;;;;;;1.30;1.20;;;11.60;99.90;;;;;;5035854;28;20498;-62
2023/09/23 03:47:53;;;;;;;1.25;1.15;;;11.60;99.90;;;;;;5035832;28;20044;-62
2023/09/23 03:50:18;;;;;;;1.15;1.08;;;11.80;99.90;;;;;;5035729;28;20393;-62
2023/09/23 03:52:45;;;;;;;0.90;0.90;;;11.60;99.90;;;;;;5035774;28;20067;-62
2023/09/23 03:55:13;;;;;;;1.40;1.30;;;11.60;99.90;;;;;;5035242;28;20107;-62
2023/09/23 03:57:39;;;;;;;1.40;1.30;;;11.60;99.90;;;;;;5035626;28;20046;-62
2023/09/23 04:00:39;;;;;;;1.50;1.40;;;11.60;99.90;;;;;;5035645;28;20037;-62
2023/09/23 04:02:59;;;;;;;1.75;1.65;;;11.70;99.90;;;;;;5012783;28;20397;-62
2023/09/23 04:05:25;;;;;;;1.20;1.10;;;11.60;99.90;;;;;;5035531;28;20405;-62
2023/09/23 04:07:51;;;;;;;1.25;1.15;;;11.40;99.90;;;;;;5035388;28;20141;-62
2023/09/23 04:10:19;;;;;;;1.40;1.30;;;11.40;99.90;;;;;;5035392;28;20116;-62
2023/09/23 04:12:45;;;;;;;1.40;1.30;;;11.50;99.90;;;;;;5035366;28;20045;-62
2023/09/23 04:15:11;;;;;;;1.52;1.30;;;11.60;99.90;;;;;;5035285;28;20048;-63
2023/09/23 04:17:38;;;;;;;1.50;1.40;;;11.30;99.90;;;;;;5034809;28;20056;-64
2023/09/23 04:20:11;;;;;;;1.20;1.20;;;11.30;99.90;;;;;;5017190;28;20436;-63
2023/09/23 04:22:37;;;;;;;1.40;1.30;;;11.30;99.90;;;;;;5035198;28;20045;-63
2023/09/23 04:25:05;;;;;;;1.58;1.48;;;11.40;99.90;;;;;;5035233;28;20390;-65
2023/09/23 04:27:32;;;;;;;1.40;1.30;;;11.40;99.90;;;;;;5034785;28;20123;-65
2023/09/23 04:29:58;;;;;;;1.60;1.50;;;11.30;99.90;;;;;;5034733;28;20099;-65
2023/09/23 04:32:24;;;;;;;1.70;1.60;;;11.30;99.90;;;;;;5034622;28;20045;-65
2023/09/23 04:34:50;;;;;;;1.70;1.60;;;11.60;99.90;;;;;;5034326;28;20037;-70
2023/09/23 04:37:15;;;;;;;1.73;1.52;;;11.30;99.90;;;;;;5034685;28;20045;-72
2023/09/23 04:39:41;;;;;;;1.80;1.70;;;11.10;99.90;;;;;;5034547;28;20072;-72
2023/09/23 04:42:07;;;;;;;1.40;1.30;;;11.50;99.90;;;;;;5034785;28;20502;-71
2023/09/23 04:44:33;;;;;;;1.48;1.38;;;11.30;99.90;;;;;;5034804;28;20068;-71
2023/09/23 04:46:59;;;;;;;1.02;1.00;;;11.30;99.90;;;;;;5016610;28;20111;-71
2023/09/23 04:49:28;;;;;;;1.40;1.30;;;11.20;99.90;;;;;;5000307;28;20041;-71
2023/09/23 04:51:53;;;;;;;1.40;1.30;;;11.10;99.90;;;;;;5034605;28;20124;-71
2023/09/23 04:54:19;;;;;;;1.52;1.42;;;11.10;99.90;;;;;;5034351;28;20073;-70
2023/09/23 04:56:44;;;;;;;1.75;1.65;;;11.10;99.90;;;;;;5034365;28;20104;-71
2023/09/23 04:59:12;;;;;;;1.88;1.77;;;11.20;99.90;;;;;;5034185;28;20045;-73
2023/09/23 05:01:38;;;;;;;1.67;1.58;;;11.00;99.90;;;;;;5034470;28;20046;-71
2023/09/23 05:04:08;;;;;;;4.20;1.83;;;11.10;99.90;;;;;;5034021;28;20087;-71
2023/09/23 05:06:35;;;;;;;1.70;1.60;;;11.10;99.90;;;;;;5034099;28;20045;-71
2023/09/23 05:09:02;;;;;;;1.60;1.50;;;11.10;99.90;;;;;;5016326;28;20056;-70
2023/09/23 05:11:27;;;;;;;1.20;1.10;;;11.10;99.90;;;;;;5034328;28;20045;-71
2023/09/23 05:13:53;;;;;;;1.52;1.42;;;11.00;99.90;;;;;;5034202;28;20049;-71
2023/09/23 05:16:19;;;;;;;1.90;1.80;;;11.10;99.90;;;;;;5033920;28;20053;-71
2023/09/23 05:18:46;;;;;;;1.65;1.55;;;11.00;99.90;;;;;;5034083;28;20120;-71
2023/09/23 05:21:13;;;;;;;1.55;1.45;;;11.10;99.90;;;;;;5016149;28;20397;-72
2023/09/23 05:23:41;;;;;;;1.77;1.67;;;11.00;99.90;;;;;;5033730;28;20045;-71
2023/09/23 05:26:07;;;;;;;2.08;1.90;;;11.00;99.90;;;;;;5033942;28;20516;-72
2023/09/23 05:28:33;;;;;;;1.65;1.55;;;11.00;99.90;;;;;;5033656;28;20080;-71
2023/09/23 05:30:59;;;;;;;1.83;1.70;;;10.90;99.90;;;;;;5033551;28;20073;-71
2023/09/23 05:33:25;;;;;;;2.05;1.85;;;11.00;99.90;;;;;;5033875;28;20401;-71
2023/09/23 05:35:52;;;;;;;1.67;1.58;;;11.20;99.90;;;;;;5033784;28;20048;-65
2023/09/23 05:38:19;;;;;;;2.17;1.98;;;11.00;99.90;;;;;;5033771;28;20528;-66
2023/09/23 05:40:46;;;;;;;2.13;1.98;;;10.90;99.90;;;;;;5033705;28;20038;-65
2023/09/23 05:43:11;;;;;;;1.80;1.70;;;11.10;99.90;;;;;;5033353;28;20076;-64
2023/09/23 05:45:37;;;;;;;2.20;2.03;;;11.00;99.90;;;;;;5032877;28;20069;-63
2023/09/23 05:48:04;;;;;;;2.03;1.92;;;11.00;99.90;;;;;;5033598;28;20108;-65
2023/09/23 05:50:30;;;;;;;2.10;1.98;;;11.10;99.90;;;;;;5033267;28;20401;-63
2023/09/23 05:52:57;;;;;;;2.17;1.90;;;11.10;99.90;;;;;;5033491;28;20050;-63
2023/09/23 05:55:22;;;;;;;2.80;2.60;;;11.00;99.90;;;;;;5033414;28;20050;-63
2023/09/23 05:57:49;;;;;;;1.95;1.85;;;11.20;99.90;;;;;;5033331;28;20496;-64
2023/09/23 06:00:15;;;;;;;2.60;2.40;;;11.10;99.90;;;;;;5033351;28;20106;-64
2023/09/23 06:02:41;;;;;;;2.72;2.53;;;11.10;99.90;;;;;;5033121;28;20044;-63
2023/09/23 06:05:07;;;;;;;2.78;2.08;;;11.20;99.90;;;;;;5033037;28;20553;-63
2023/09/23 06:07:33;;;;;;;2.65;2.45;;;11.30;99.90;;;;;;5032944;28;20040;-64
2023/09/23 06:09:59;;;;;;;2.83;2.63;;;11.40;99.90;;;;;;5033158;28;20034;-62
2023/09/23 06:12:32;;;;;;;3.22;2.92;;;11.60;99.90;;;;;;5033291;28;20136;-66
2023/09/23 06:15:01;;;;;;;2.67;2.47;;;11.30;99.90;;;;;;5033142;28;20445;-64
2023/09/23 06:17:28;;;;;;;3.55;3.25;;;11.60;99.90;;;;;;5032704;28;20057;-64
2023/09/23 06:19:57;;;;;;;3.67;3.38;;;11.30;99.90;;;;;;5033071;28;20116;-63
2023/09/23 06:22:23;;;;;;;4.00;3.70;;;11.30;99.90;;;;;;5015287;28;20085;-64
2023/09/23 06:24:50;;;;;;;3.00;2.80;;;11.20;99.90;;;;;;5033059;28;20041;-63
2023/09/23 06:27:16;;;;;;;4.32;3.97;;;11.40;99.90;;;;;;5033102;28;20497;-65
2023/09/23 06:29:43;;;;;;;3.92;3.60;;;11.80;99.90;;;;;;5015170;28;20425;-64
2023/09/23 06:32:08;;;;;;;4.00;3.70;;;11.50;99.90;;;;;;5033007;28;20033;-63
2023/09/23 06:34:34;;;;;;;3.55;3.28;;;11.50;99.90;;;;;;5032904;28;20538;-63
2023/09/23 06:37:00;;;;;;;4.13;3.83;;;11.50;99.90;;;;;;5032695;28;20477;-65
2023/09/23 06:39:25;;;;;;;3.60;3.30;;;11.70;99.90;;;;;;5032976;28;20099;-65
2023/09/23 06:41:51;;;;;;;4.13;3.83;;;11.80;99.90;;;;;;5032924;28;20482;-64
2023/09/23 06:44:17;;;;;;;4.05;3.75;;;11.90;99.90;;;;;;5032644;28;20116;-65
2023/09/23 06:46:42;;;;;;;4.05;3.75;;;11.70;99.90;;;;;;5032647;28;20045;-63
2023/09/23 06:49:08;;;;;;;3.70;3.40;;;11.90;99.90;;;;;;5032525;28;20496;-63
2023/09/23 06:51:33;;;;;;;3.97;3.67;;;12.10;99.90;;;;;;5032762;28;20034;-63
2023/09/23 06:53:59;;;;;;;3.95;3.63;;;11.80;99.90;;;;;;5032475;28;20041;-64
2023/09/23 06:56:24;;;;;;;4.07;3.78;;;11.90;99.90;;;;;;5033936;28;20048;-71
2023/09/23 06:58:50;;;;;;;4.30;3.90;;;11.80;99.90;;;;;;5036971;28;20037;-70
2023/09/23 07:01:16;;;;;;;3.85;3.55;;;12.00;99.90;;;;;;5036842;28;20401;-71
2023/09/23 07:03:42;;;;;;;3.97;3.67;;;12.10;99.90;;;;;;5036573;28;20075;-70
2023/09/23 07:06:08;;;;;;;3.63;3.33;;;12.10;99.90;;;;;;5036737;28;20045;-72
2023/09/23 07:08:34;;;;;;;3.55;3.28;;;12.30;99.90;;;;;;5036371;28;20065;-71
2023/09/23 07:10:59;;;;;;;3.88;3.58;;;12.10;99.90;;;;;;5036542;28;20052;-71
2023/09/23 07:13:25;;;;;;;4.10;3.78;;;12.10;99.90;;;;;;5036318;28;20039;-72
2023/09/23 07:15:51;;;;;;;3.22;3.00;;;12.40;99.90;;;;;;5036216;28;20531;-71
2023/09/23 07:18:17;;;;;;;3.95;3.50;;;;;;;;;;5035235;28;20046;-71
2023/09/23 07:20:43;;;;;;;3.40;3.10;;;12.50;99.90;;;;;;5036237;28;20457;-68
2023/09/23 07:23:09;;;;;;;3.20;2.95;;;12.40;99.90;;;;;;5035893;28;20049;-71
2023/09/23 07:25:39;;;;;;;3.78;3.47;;;12.50;99.90;;;;;;5018226;28;20140;-71
2023/09/23 07:28:06;;;;;;;3.97;3.58;;;12.50;99.90;;;;;;5036172;28;20126;-69
2023/09/23 07:30:36;;;;;;;3.58;3.30;;;12.60;99.90;;;;;;5035849;28;20045;-70
2023/09/23 07:33:02;;;;;;;3.90;3.60;;;12.60;99.90;;;;;;5035983;28;20041;-73
2023/09/23 07:35:35;;;;;;;3.88;3.58;;;12.50;99.90;;;;;;5036081;28;20041;-72
2023/09/23 07:38:02;;;;;;;3.78;3.47;;;12.50;99.90;;;;;;5036093;28;20041;-72
2023/09/23 07:40:29;;;;;;;3.92;3.63;;;12.60;99.90;;;;;;5036118;28;20033;-72
2023/09/23 07:42:55;;;;;;;3.35;3.05;;;12.60;99.90;;;;;;5018049;28;20088;-72
2023/09/23 07:45:21;;;;;;;2.72;2.53;;;12.70;99.90;;;;;;5018268;28;20049;-72
2023/09/23 07:47:46;;;;;;;3.50;3.20;;;12.70;99.90;;;;;;5035681;28;20454;-70
2023/09/23 07:50:12;;;;;;;3.33;3.03;;;12.80;99.90;;;;;;5035480;28;20036;-71
2023/09/23 07:52:38;;;;;;;3.60;3.30;;;13.00;99.90;;;;;;5017859;28;20136;-72
2023/09/23 07:55:07;;;;;;;3.17;2.88;;;13.10;99.90;;;;;;5035545;28;20076;-72
2023/09/23 07:57:33;;;;;;;3.47;3.20;;;13.20;99.90;;;;;;5017573;28;20041;-72
2023/09/23 07:59:59;;;;;;;3.67;3.38;;;13.20;99.90;;;;;;5035640;28;20035;-72
2023/09/23 08:02:25;;;;;;;3.42;3.13;;;13.40;99.90;;;;;;5035509;28;20358;-72
2023/09/23 08:04:50;;;;;;;3.33;3.03;;;13.50;99.90;;;;;;5035736;28;20057;-71
2023/09/23 08:07:16;;;;;;;3.35;3.05;;;13.60;99.90;;;;;;5034815;28;20081;-72
2023/09/23 08:09:42;;;;;;;3.10;2.80;;;13.70;99.90;;;;;;5017472;28;20077;-73
2023/09/23 08:12:09;;;;;;;2.90;2.70;;;13.70;99.90;;;;;;5017737;28;20041;-71
2023/09/23 08:14:35;;;;;;;3.05;2.80;;;13.90;99.90;;;;;;5017468;28;20045;-69
2023/09/23 08:17:00;;;;;;;2.60;2.40;;;14.00;99.90;;;;;;5034771;28;20084;-66
2023/09/23 08:19:26;;;;;;;2.60;2.40;;;14.10;99.90;;;;;;5035020;28;20041;-66
2023/09/23 08:21:52;;;;;;;2.42;2.22;;;14.10;99.90;;;;;;5034858;28;20037;-66
2023/09/23 08:24:18;;;;;;;2.50;2.30;;;14.10;99.90;;;;;;5017029;28;20044;-67
2023/09/23 08:26:43;;;;;;;2.90;2.70;;;14.10;99.90;;;;;;5017163;28;20042;-65
2023/09/23 08:29:09;;;;;;;2.30;2.10;;;14.10;99.90;;;;;;5034727;28;20042;-65
2023/09/23 08:31:36;;;;;;;2.10;2.00;;;14.00;99.90;;;;;;5035040;28;20030;-65
2023/09/23 08:34:04;;;;;;;2.33;2.13;;;14.00;99.90;;;;;;5034605;28;20073;-65
2023/09/23 08:36:29;;;;;;;2.80;2.60;;;14.00;99.90;;;;;;5034782;28;20426;-65
2023/09/23 08:38:55;;;;;;;3.22;2.47;;;14.00;99.90;;;;;;5016827;28;20084;-66
2023/09/23 08:41:22;;;;;;;1.90;1.80;;;14.50;99.90;;;;;;5034535;28;20053;-65
2023/09/23 08:43:51;;;;;;;2.08;1.92;;;14.10;99.90;;;;;;5034751;28;20107;-66
2023/09/23 08:46:19;;;;;;;2.20;2.00;;;14.10;99.90;;;;;;5034634;28;20056;-66
2023/09/23 08:48:45;;;;;;;1.92;1.83;;;14.10;99.90;;;;;;5016606;28;20041;-67
2023/09/23 08:51:12;;;;;;;1.85;1.75;;;14.30;99.90;;;;;;5034599;28;20485;-66
2023/09/23 08:53:39;;;;;;;2.63;1.80;;;14.40;99.90;;;;;;5016553;28;20076;-67
2023/09/23 08:56:06;;;;;;;2.40;2.20;;;14.40;99.90;;;;;;5034123;28;20092;-67
2023/09/23 08:58:32;;;;;;;1.75;1.65;;;14.60;99.90;;;;;;5034233;28;20037;-67
2023/09/23 09:00:58;;;;;;;1.80;1.70;;;14.70;99.90;;;;;;5034384;28;20029;-67
2023/09/23 09:03:24;;;;;;;2.28;1.85;;;14.70;99.90;;;;;;5034090;28;20069;-67
2023/09/23 09:05:50;;;;;;;1.50;1.40;;;14.80;99.90;;;;;;5034184;28;20072;-66
2023/09/23 09:08:18;;;;;;;1.70;1.60;;;14.80;99.90;;;;;;5016221;28;20053;-66
2023/09/23 09:10:44;;;;;;;3.38;1.65;;;14.80;99.90;;;;;;5033871;28;20084;-66
2023/09/23 09:13:09;;;;;;;1.52;1.42;;;14.80;99.90;;;;;;5034088;28;20073;-66
2023/09/23 09:15:38;;;;;;;1.67;1.55;;;14.80;99.90;;;;;;5033986;28;20489;-71
2023/09/23 09:18:04;;;;;;;3.47;1.77;;;14.70;99.90;;;;;;5015882;28;20428;-70
2023/09/23 09:20:31;;;;;;;1.67;1.58;;;14.80;99.90;;;;;;5033846;28;20413;-72
2023/09/23 09:22:57;;;;;;;1.75;1.65;;;14.80;99.90;;;;;;5016267;28;20046;-70
2023/09/23 09:25:23;;;;;;;1.70;1.60;;;14.80;99.90;;;;;;5033775;28;20037;-62
2023/09/23 09:27:53;;;;;;;1.88;1.40;;;14.70;99.90;;;;;;5033904;28;20073;-61
2023/09/23 09:30:19;;;;;;;1.70;1.60;;;14.70;99.90;;;;;;5033828;28;20374;-61
2023/09/23 09:32:46;;;;;;;1.63;1.52;;;14.70;99.90;;;;;;5033915;28;20048;-61
2023/09/23 09:35:19;;;;;;;1.75;1.63;;;15.10;99.90;;;;;;5033731;28;20045;-61
2023/09/23 09:37:48;;;;;;;1.67;1.40;;;15.00;99.90;;;;;;5033789;28;20370;-62
2023/09/23 09:40:17;;;;;;;1.60;1.50;;;15.00;99.90;;;;;;5033675;28;20393;-62
2023/09/23 09:42:47;;;;;;;1.85;1.30;;;15.10;99.90;;;;;;5015816;28;20116;-61
2023/09/23 09:45:15;;;;;;;1.42;1.33;;;15.20;99.90;;;;;;5033394;28;20470;-62
2023/09/23 09:47:44;;;;;;;1.65;1.55;;;15.40;99.90;;;;;;5033497;28;20049;-61
2023/09/23 09:50:14;;;;;;;1.85;1.42;;;15.60;99.90;;;;;;5033519;28;20038;-61
2023/09/23 09:52:43;;;;;;;1.30;0.93;;;15.70;99.90;;;;;;5033442;28;20448;-61
2023/09/23 09:55:14;;;;;;;1.27;1.15;;;16.50;99.90;;;;;;5033305;28;20390;-61
2023/09/23 09:57:41;;;;;;;1.10;1.00;;;15.90;99.90;;;;;;5033437;28;20071;-61
2023/09/23 10:00:15;;;;;;;1.25;1.00;;;15.60;99.90;;;;;;5015369;28;20444;-62
2023/09/23 10:02:43;;;;;;;0.98;0.93;;;16.10;99.90;;;;;;5015574;28;20620;-61
2023/09/23 10:05:17;;;;;;;2.20;1.33;;;16.10;99.90;;;;;;5033261;28;20081;-61
2023/09/23 10:07:54;;;;;;;1.20;1.00;;;16.00;99.90;;;;;;5033225;28;20060;-61
2023/09/23 10:10:31;;;;;;;1.55;1.23;;;16.20;99.90;;;;;;5033086;28;20477;-61
2023/09/23 10:13:26;;;;;;;1.13;1.00;;;16.20;99.90;;;;;;5033070;28;20041;-61
2023/09/23 10:16:05;;;;;;;1.05;0.80;;;16.50;99.90;;;;;;5023582;28;20053;-62
2023/09/23 10:18:36;;;;;;;3.40;1.67;;;16.70;99.90;;;;;;5032938;28;20038;-62
2023/09/23 10:21:03;;;;;;;1.10;1.00;;;16.80;99.90;;;;;;5032816;28;20033;-62
2023/09/23 10:23:36;;;;;;;0.73;0.65;;;16.30;99.90;;;;;;5015240;28;20034;-61
2023/09/23 10:26:19;;;;;;;0.80;0.80;;;16.40;99.90;;;;;;5033092;28;20041;-67
2023/09/23 10:29:03;;;;;;;1.25;0.95;;;16.50;99.90;;;;;;5033025;28;20041;-64
2023/09/23 10:31:30;;;;;;;1.15;1.02;;;16.60;99.90;;;;;;5032447;28;20420;-64
2023/09/23 10:33:56;;;;;;;0.82;0.82;;;17.20;99.90;;;;;;5032984;28;20045;-65
2023/09/23 10:36:22;;;;;;;1.10;0.98;;;16.70;99.90;;;;;;5032728;28;20474;-64
2023/09/23 10:38:48;;;;;;;1.27;1.00;;;16.90;99.90;;;;;;5032499;28;20128;-65
2023/09/23 10:41:14;;;;;;;0.60;0.60;;;17.30;99.90;;;;;;5032900;28;20422;-64
2023/09/23 10:43:40;;;;;;;0.60;0.60;;;17.20;99.90;;;;;;5032869;28;20030;-65
2023/09/23 10:46:06;;;;;;;1.00;0.80;;;17.10;99.90;;;;;;5032871;28;20092;-63
2023/09/23 10:48:32;;;;;;;0.80;0.70;;;17.00;99.90;;;;;;5032625;28;20525;-64
2023/09/23 10:51:01;;;;;;;0.63;0.52;;;17.30;99.90;;;;;;5032790;28;20113;-65
2023/09/23 10:53:30;;;;;;;1.00;0.50;;;16.90;99.90;;;;;;5032531;28;20050;-64
2023/09/23 10:56:01;;;;;;;0.77;0.65;;;16.70;99.90;;;;;;5032710;28;20428;-65
2023/09/23 10:58:29;;;;;;;0.90;0.82;;;16.80;99.90;;;;;;5032786;28;20056;-64
2023/09/23 11:00:56;;;;;;;0.70;0.60;;;16.80;99.90;;;;;;5032726;28;20048;-64
2023/09/23 11:03:22;;;;;;;0.65;0.65;;;16.80;99.90;;;;;;5032539;28;20416;-66
2023/09/23 11:05:48;;;;;;;1.42;0.75;;;17.20;99.90;;;;;;5032599;28;20095;-66
2023/09/23 11:08:16;;;;;;;0.77;0.63;;;17.10;99.90;;;;;;5032686;28;20437;-66
2023/09/23 11:10:44;;;;;;;0.50;0.50;;;17.10;99.90;;;;;;5032676;28;20052;-67
2023/09/23 11:13:11;;;;;;;1.02;0.73;;;17.00;99.90;;;;;;5014886;28;20072;-65
2023/09/23 11:15:38;;;;;;;0.88;0.73;;;16.40;99.90;;;;;;5032538;28;20037;-66
2023/09/23 11:18:07;;;;;;;2.80;0.85;;;16.20;99.90;;;;;;5032008;28;20084;-65
2023/09/23 11:20:34;;;;;;;1.25;0.77;;;;;;;;;;5032598;28;20033;-66
2023/09/23 11:23:05;;;;;;;0.77;0.77;;;;;;;;;;5032242;28;20116;-65
2023/09/23 11:25:31;;;;;;;0.82;0.73;;;;;;;;;;5014807;28;20099;-65
2023/09/23 11:27:58;;;;;;;1.15;0.90;;;;;;;;;;5032335;28;20041;-65
2023/09/23 11:30:24;;;;;;;2.10;0.70;;;;;;;;;;5032456;28;20100;-66
2023/09/23 11:32:54;;;;;;;0.82;0.50;;;;;;;;;;5014220;28;20045;-65
2023/09/23 11:35:21;;;;;;;2.05;0.73;;;;;;;;;;5032260;28;20084;-64
2023/09/23 11:37:49;;;;;;;1.02;0.80;;;;;;;;;;5031798;28;20046;-65
2023/09/23 11:40:15;;;;;;;1.20;0.90;;;;;;;;;;5032245;28;20121;-65
2023/09/23 11:42:41;;;;;;;0.50;0.50;;;;;;;;;;5032317;28;20044;-67
2023/09/23 11:45:09;;;;;;;2.22;0.77;;;;;;;;;;5035475;28;20053;-65
2023/09/23 11:47:35;;;;;;;0.52;0.52;;;;;;;;;;5035422;28;20045;-67
2023/09/23 11:50:03;;;;;;;0.40;0.40;;;;;;;;;;5035672;28;20045;-64
2023/09/23 11:52:31;;;;;;;0.65;0.52;;;;;;;;;;5017596;28;20409;-65
2023/09/23 11:54:57;;;;;;;0.82;0.75;;;;;;;;;;5035181;28;20052;-68
2023/09/23 11:57:23;;;;;;;0.50;0.50;;;;;;;;;;5035557;28;20040;-65
2023/09/23 11:59:49;;;;;;;0.40;0.40;;;;;;;;;;5035500;28;20067;-65
2023/09/23 12:02:15;;;;;;;0.70;0.68;;;;;;;;;;5035408;28;20394;-65
2023/09/23 12:04:40;;;;;;;0.98;0.88;;;;;;;;;;5035431;28;20068;-64
2023/09/23 12:07:06;;;;;;;0.82;0.70;;;;;;;;;;5035290;28;20077;-66
2023/09/23 12:09:37;;;;;;;1.00;0.68;;;;;;;;;;5017247;28;20037;-65
2023/09/23 12:12:03;;;;;;;0.70;0.70;;;;;;;;;;5035181;28;20129;-65
2023/09/23 12:14:29;;;;;;;0.55;0.40;;;;;;;;;;5035245;28;20409;-65
2023/09/23 12:16:55;;;;;;;1.17;1.02;;;;;;;;;;5034819;28;20053;-64
2023/09/23 12:19:21;;;;;;;1.33;0.80;;;;;;;;;;5017065;28;20049;-64
2023/09/23 12:21:49;;;;;;;0.50;0.50;;;;;;;;;;5035124;28;20409;-64
2023/09/23 12:24:15;;;;;;;0.75;0.50;;;;;;;;;;5034911;28;20103;-65
2023/09/23 12:26:41;;;;;;;0.60;0.50;;;;;;;;;;5034774;28;20045;-64
2023/09/23 12:29:07;;;;;;;0.63;0.60;;;;;;;;;;5034842;28;20046;-64
2023/09/23 12:31:33;;;;;;;0.93;0.60;;;;;;;;;;5034829;28;20037;-64
2023/09/23 12:33:59;;;;;;;0.50;0.38;;;;;;;;;;5034780;28;20041;-64
2023/09/23 12:36:26;;;;;;;1.95;0.75;;;;;;;;;;5034938;28;20041;-64
2023/09/23 12:38:54;;;;;;;0.40;0.40;;;;;;;;;;5034996;28;20103;-65
2023/09/23 12:41:20;;;;;;;0.80;0.60;;;;;;;;;;5034935;28;20494;-65
2023/09/23 12:43:46;;;;;;;1.13;0.70;;;15.90;99.90;;;;;;5034847;28;20044;-64
2023/09/23 12:46:12;;;;;;;0.77;0.50;;;15.40;99.90;;;;;;5017149;28;20037;-64
2023/09/23 12:48:37;;;;;;;2.80;1.00;;;15.30;99.90;;;;;;5034537;28;20037;-64
2023/09/23 12:51:03;;;;;;;0.73;0.50;;;15.20;99.90;;;;;;5034746;28;20049;-65
2023/09/23 12:53:28;;;;;;;0.60;0.60;;;15.50;99.90;;;;;;5034039;28;20037;-66
2023/09/23 12:55:54;;;;;;;0.70;0.43;;;15.10;99.90;;;;;;5033985;28;20038;-66
2023/09/23 12:58:20;;;;;;;0.50;0.40;;;15.10;99.90;;;;;;5034289;28;20033;-65